createdAt,value
2023-02-11T00:24:24.188Z,12
2023-02-11T00:53:17.983Z,13
2023-02-11T01:22:06.795Z,11
2023-02-11T01:51:00.150Z,11
2023-02-11T02:19:55.317Z,10
2023-02-11T02:48:39.524Z,10
2023-02-11T03:17:19.932Z,10
2023-02-11T03:46:11.159Z,10
2023-02-11T04:15:05.723Z,9
2023-02-11T04:44:17.300Z,10
2023-02-11T05:13:13.158Z,10
2023-02-11T05:42:06.239Z,9
2023-02-11T06:10:44.175Z,9
2023-02-11T06:39:29.265Z,10
2023-02-11T07:08:15.974Z,9
2023-02-11T07:36:43.235Z,10
2023-02-11T08:05:35.292Z,9
2023-02-11T08:34:24.196Z,9
2023-02-11T09:03:28.713Z,11
2023-02-11T09:32:11.254Z,12
2023-02-11T10:00:50.340Z,13
2023-02-11T10:29:21.370Z,13
2023-02-11T10:58:05.959Z,21
2023-02-11T11:26:50.710Z,20
2023-02-11T11:55:39.106Z,15
2023-02-11T12:24:18.593Z,20
2023-02-11T12:53:14.367Z,23
2023-02-11T13:21:59.091Z,21
2023-02-11T13:50:46.304Z,21
2023-02-11T14:19:39.478Z,21
2023-02-11T14:48:28.751Z,21
2023-02-11T15:17:16.538Z,15
2023-02-11T15:46:13.749Z,15
2023-02-11T16:14:53.898Z,14
2023-02-11T16:43:37.037Z,14
2023-02-11T17:12:33.037Z,14
2023-02-11T17:41:17.094Z,13
2023-02-11T18:09:57.751Z,13
2023-02-11T18:38:47.911Z,13
2023-02-11T19:07:35.653Z,13
2023-02-11T19:36:24.009Z,13
2023-02-11T20:05:07.465Z,13
2023-02-11T20:33:51.288Z,13
2023-02-11T21:02:42.094Z,13
2023-02-11T21:31:31.289Z,13
2023-02-11T22:00:11.881Z,13
2023-02-11T22:29:01.578Z,13
2023-02-11T22:57:52.850Z,13
2023-02-11T23:26:35.380Z,12
2023-02-11T23:55:25.550Z,11
